createdAt,value
2019-06-20T00:01:47.988Z,9.33
2019-06-20T00:04:17.629Z,8.73
2019-06-20T00:06:47.339Z,8.73
2019-06-20T00:09:16.915Z,9.80
2019-06-20T00:11:46.729Z,9.10
2019-06-20T00:14:16.349Z,9.40
2019-06-20T00:16:45.849Z,8.90
2019-06-20T00:19:15.446Z,9.00
2019-06-20T00:21:45.016Z,9.03
2019-06-20T00:24:14.582Z,9.48
2019-06-20T00:26:44.102Z,9.60
2019-06-20T00:29:13.788Z,8.10
2019-06-20T00:31:43.356Z,8.68
2019-06-20T00:34:13.097Z,9.40
2019-06-20T00:36:42.589Z,8.40
2019-06-20T00:39:12.159Z,8.48
2019-06-20T00:41:41.807Z,9.60
2019-06-20T00:44:11.437Z,7.55
2019-06-20T00:46:40.967Z,8.40
2019-06-20T00:49:10.542Z,8.98
2019-06-20T00:51:40.120Z,9.38
2019-06-20T00:54:09.776Z,9.85
2019-06-20T00:56:39.470Z,9.08
2019-06-20T00:59:09.283Z,9.10
2019-06-20T01:01:38.994Z,9.48
2019-06-20T01:04:08.821Z,8.38
2019-06-20T01:06:38.446Z,8.95
2019-06-20T01:09:09.363Z,9.30
2019-06-20T01:11:39.229Z,7.70
2019-06-20T01:14:08.997Z,8.60
2019-06-20T01:16:38.617Z,8.60
2019-06-20T01:19:08.270Z,9.80
2019-06-20T01:21:37.845Z,9.18
2019-06-20T01:24:07.512Z,10.28
2019-06-20T01:26:37.055Z,9.00
2019-06-20T01:29:18.570Z,9.53
2019-06-20T01:31:48.200Z,8.93
2019-06-20T01:34:17.854Z,9.90
2019-06-20T01:36:47.318Z,9.33
2019-06-20T01:39:16.883Z,9.80
2019-06-20T01:41:46.672Z,10.30
2019-06-20T01:44:16.303Z,9.35
2019-06-20T01:46:45.960Z,10.40
2019-06-20T01:49:15.607Z,9.30
2019-06-20T01:51:45.181Z,8.38
2019-06-20T01:54:14.809Z,9.35
2019-06-20T01:56:44.377Z,9.40
2019-06-20T01:59:14.083Z,10.38
2019-06-20T02:01:43.717Z,10.90
2019-06-20T02:04:13.526Z,8.15
2019-06-20T02:06:43.160Z,9.75
2019-06-20T02:09:12.729Z,10.82
2019-06-20T02:11:42.378Z,9.68
2019-06-20T02:14:12.030Z,9.08
2019-06-20T02:16:41.654Z,9.05
2019-06-20T02:19:11.396Z,9.70
2019-06-20T02:21:41.092Z,10.43
2019-06-20T02:24:10.669Z,11.48
2019-06-20T02:26:40.339Z,9.25
2019-06-20T02:29:10.016Z,9.73
2019-06-20T02:31:39.579Z,9.68
2019-06-20T02:34:09.290Z,12.03
2019-06-20T02:36:38.947Z,8.83
2019-06-20T02:39:08.767Z,11.53
2019-06-20T02:41:38.408Z,10.75
2019-06-20T02:44:24.722Z,10.30
2019-06-20T02:46:39.371Z,9.33
2019-06-20T02:49:08.951Z,12.20
2019-06-20T02:51:38.574Z,9.88
2019-06-20T02:54:08.154Z,10.18
2019-06-20T02:56:37.723Z,11.22
2019-06-20T02:59:08.420Z,11.53
2019-06-20T03:01:37.922Z,11.03
2019-06-20T03:04:07.530Z,11.83
2019-06-20T03:06:37.138Z,11.50
2019-06-20T03:09:07.397Z,12.00
2019-06-20T03:11:37.142Z,10.58
2019-06-20T03:14:06.887Z,12.47
2019-06-20T03:16:36.525Z,11.18
2019-06-20T03:19:06.162Z,11.90
2019-06-20T03:21:35.809Z,11.75
2019-06-20T03:24:05.440Z,9.70
2019-06-20T03:26:35.257Z,12.05
2019-06-20T03:29:05.014Z,11.70
2019-06-20T03:31:34.527Z,11.57
2019-06-20T03:34:04.261Z,10.18
2019-06-20T03:36:34.961Z,10.25
2019-06-20T03:39:07.157Z,9.93
2019-06-20T03:41:36.795Z,9.88
2019-06-20T03:44:06.435Z,10.32
2019-06-20T03:46:36.058Z,11.90
2019-06-20T03:49:05.797Z,11.93
2019-06-20T03:51:35.509Z,11.93
2019-06-20T03:54:05.152Z,9.78
2019-06-20T03:56:34.761Z,12.37
2019-06-20T03:59:04.510Z,10.25
2019-06-20T04:01:34.220Z,10.98
2019-06-20T04:04:04.861Z,12.58
2019-06-20T04:06:34.558Z,12.85
2019-06-20T04:09:05.669Z,11.60
2019-06-20T04:11:35.240Z,10.85
2019-06-20T04:14:04.922Z,10.30
2019-06-20T04:16:34.488Z,10.90
2019-06-20T04:19:04.135Z,9.58
2019-06-20T04:21:33.701Z,10.98
2019-06-20T04:24:03.458Z,10.72
2019-06-20T04:26:33.372Z,11.18
2019-06-20T04:29:02.984Z,11.43
2019-06-20T04:31:32.691Z,9.33
2019-06-20T04:34:02.272Z,9.88
2019-06-20T04:36:32.006Z,10.38
2019-06-20T04:39:01.747Z,9.38
2019-06-20T04:41:32.862Z,10.78
2019-06-20T04:44:02.697Z,9.90
2019-06-20T04:46:49.058Z,8.00
2019-06-20T04:49:19.826Z,11.48
2019-06-20T04:51:49.493Z,8.90
2019-06-20T04:54:19.253Z,8.90
2019-06-20T04:56:48.969Z,11.10
2019-06-20T04:59:18.638Z,8.88
2019-06-20T05:01:48.185Z,8.45
2019-06-20T05:04:17.694Z,10.32
2019-06-20T05:06:50.449Z,10.38
2019-06-20T05:09:20.027Z,11.43
2019-06-20T05:11:49.557Z,10.65
2019-06-20T05:14:19.188Z,9.55
2019-06-20T05:16:48.843Z,10.13
2019-06-20T05:19:18.473Z,8.75
2019-06-20T05:21:48.108Z,9.30
2019-06-20T05:24:17.611Z,8.63
2019-06-20T05:26:47.317Z,9.28
2019-06-20T05:29:16.873Z,7.15
2019-06-20T05:31:46.556Z,7.08
2019-06-20T05:34:16.131Z,8.73
2019-06-20T05:36:45.707Z,9.08
2019-06-20T05:39:15.275Z,9.10
2019-06-20T05:41:44.967Z,20.27
2019-06-20T05:44:14.765Z,13.45
2019-06-20T05:46:44.422Z,16.12
2019-06-20T05:49:14.072Z,10.90
2019-06-20T05:51:43.642Z,9.45
2019-06-20T05:54:13.233Z,8.33
2019-06-20T05:56:43.633Z,8.33
2019-06-20T05:59:13.500Z,8.18
2019-06-20T06:01:43.079Z,8.63
2019-06-20T06:04:12.687Z,8.25
2019-06-20T06:06:42.962Z,7.97
2019-06-20T06:09:12.794Z,8.70
2019-06-20T06:11:42.546Z,8.30
2019-06-20T06:14:12.181Z,7.47
2019-06-20T06:16:44.197Z,8.80
2019-06-20T06:19:13.818Z,8.03
2019-06-20T06:21:43.560Z,8.55
2019-06-20T06:24:13.207Z,8.63
2019-06-20T06:26:42.919Z,8.45
2019-06-20T06:29:12.626Z,9.55
2019-06-20T06:31:42.193Z,8.80
2019-06-20T06:34:11.843Z,8.85
2019-06-20T06:36:41.486Z,8.63
2019-06-20T06:39:11.214Z,9.38
2019-06-20T06:41:40.875Z,8.75
2019-06-20T06:44:10.413Z,8.08
2019-06-20T06:46:47.153Z,8.00
2019-06-20T06:49:11.268Z,8.58
2019-06-20T06:51:40.842Z,9.93
2019-06-20T06:54:10.414Z,9.48
2019-06-20T06:56:40.055Z,10.35
2019-06-20T06:59:09.766Z,10.15
2019-06-20T07:01:39.553Z,10.05
2019-06-20T07:04:09.524Z,9.90
2019-06-20T07:06:39.101Z,7.97
2019-06-20T07:09:09.395Z,8.83
2019-06-20T07:11:39.096Z,8.95
2019-06-20T07:14:08.745Z,10.03
2019-06-20T07:16:38.305Z,11.57
2019-06-20T07:19:07.992Z,8.75
2019-06-20T07:21:37.692Z,8.90
2019-06-20T07:24:07.265Z,9.90
2019-06-20T07:26:36.826Z,10.70
2019-06-20T07:29:07.654Z,11.85
2019-06-20T07:31:37.259Z,14.05
2019-06-20T07:34:06.869Z,11.12
2019-06-20T07:36:36.353Z,12.13
2019-06-20T07:39:08.598Z,13.18
2019-06-20T07:41:38.258Z,11.18
2019-06-20T07:44:07.929Z,10.58
2019-06-20T07:46:37.513Z,11.80
2019-06-20T07:49:07.078Z,9.53
2019-06-20T07:51:36.790Z,10.08
2019-06-20T07:54:06.557Z,11.20
2019-06-20T07:56:36.313Z,9.65
2019-06-20T07:59:05.907Z,12.95
2019-06-20T08:01:35.546Z,11.57
2019-06-20T08:04:05.386Z,12.73
2019-06-20T08:06:35.028Z,12.53
2019-06-20T08:09:07.501Z,11.85
2019-06-20T08:11:37.077Z,13.50
2019-06-20T08:14:06.816Z,13.98
2019-06-20T08:16:36.526Z,11.65
2019-06-20T08:19:06.340Z,14.25
2019-06-20T08:21:35.913Z,14.65
2019-06-20T08:24:05.688Z,14.47
2019-06-20T08:26:35.506Z,13.83
2019-06-20T08:29:19.776Z,15.43
2019-06-20T08:31:36.737Z,14.55
2019-06-20T08:34:06.567Z,13.88
2019-06-20T08:36:36.286Z,16.57
2019-06-20T08:39:09.345Z,13.95
2019-06-20T08:41:38.915Z,15.10
2019-06-20T08:44:08.637Z,12.63
2019-06-20T08:46:38.376Z,10.28
2019-06-20T08:49:08.017Z,12.65
2019-06-20T08:51:37.586Z,11.45
2019-06-20T08:54:07.223Z,10.08
2019-06-20T08:56:36.846Z,11.38
2019-06-20T08:59:06.618Z,9.83
2019-06-20T09:01:36.228Z,11.10
2019-06-20T09:04:06.127Z,12.47
2019-06-20T09:06:35.751Z,13.58
2019-06-20T09:09:07.563Z,15.70
2019-06-20T09:11:37.222Z,12.00
2019-06-20T09:14:06.995Z,11.63
2019-06-20T09:16:36.819Z,10.93
2019-06-20T09:19:06.297Z,13.10
2019-06-20T09:21:35.940Z,10.32
2019-06-20T09:24:05.656Z,12.28
2019-06-20T09:26:35.378Z,12.63
2019-06-20T09:29:05.097Z,14.05
2019-06-20T09:31:34.802Z,15.85
2019-06-20T09:34:05.469Z,14.98
2019-06-20T09:36:35.257Z,15.45
2019-06-20T09:39:06.973Z,11.53
2019-06-20T09:41:36.733Z,10.78
2019-06-20T09:44:06.557Z,13.78
2019-06-20T09:46:36.169Z,12.05
2019-06-20T09:49:05.980Z,11.33
2019-06-20T09:51:35.968Z,11.90
2019-06-20T09:54:06.087Z,12.18
2019-06-20T09:56:36.360Z,10.15
2019-06-20T09:59:06.046Z,10.88
2019-06-20T10:01:35.605Z,10.45
2019-06-20T10:04:05.470Z,11.80
2019-06-20T10:06:35.291Z,10.38
2019-06-20T10:09:09.234Z,9.75
2019-06-20T10:11:38.871Z,8.78
2019-06-20T10:14:09.298Z,8.98
2019-06-20T10:16:45.923Z,7.53
2019-06-20T10:19:13.220Z,8.48
2019-06-20T10:21:41.701Z,7.75
2019-06-20T10:24:11.448Z,9.05
2019-06-20T10:26:41.158Z,7.40
2019-06-20T10:29:10.766Z,8.23
2019-06-20T10:31:40.340Z,9.05
2019-06-20T10:34:09.983Z,8.65
2019-06-20T10:36:39.664Z,7.72
2019-06-20T10:39:11.874Z,6.92
2019-06-20T10:41:41.546Z,7.72
2019-06-20T10:44:11.267Z,6.42
2019-06-20T10:46:40.992Z,5.20
2019-06-20T10:49:10.561Z,4.85
2019-06-20T10:51:47.501Z,5.53
2019-06-20T10:54:17.256Z,7.22
2019-06-20T10:56:47.147Z,6.35
2019-06-20T10:59:18.043Z,8.15
2019-06-20T11:01:48.370Z,7.33
2019-06-20T11:04:18.360Z,7.60
2019-06-20T11:06:48.062Z,5.78
2019-06-20T11:09:17.735Z,4.55
2019-06-20T11:11:47.430Z,4.70
2019-06-20T11:14:17.070Z,4.55
2019-06-20T11:16:47.181Z,4.12
2019-06-20T11:19:16.956Z,3.85
2019-06-20T11:21:47.631Z,4.50
2019-06-20T11:24:17.386Z,4.08
2019-06-20T11:26:47.948Z,4.97
2019-06-20T11:29:17.723Z,4.53
2019-06-20T15:30:23.386Z,7.35
2019-06-20T17:36:18.920Z,2.67
2019-06-20T17:38:48.638Z,4.37
2019-06-20T21:58:06.279Z,3.15
2019-06-20T22:00:43.261Z,2.87
2019-06-20T22:03:14.513Z,2.87
2019-06-20T22:05:44.065Z,3.22
2019-06-20T22:08:14.595Z,2.70
2019-06-20T22:10:44.294Z,3.30
2019-06-20T22:13:13.939Z,3.55
2019-06-20T22:15:43.577Z,3.35
2019-06-20T22:18:13.308Z,3.58
2019-06-20T22:20:42.934Z,3.25
2019-06-20T22:23:12.512Z,3.67
2019-06-20T22:25:42.147Z,3.25
2019-06-20T22:28:11.764Z,4.00
2019-06-20T22:30:44.342Z,3.42
2019-06-20T22:33:13.906Z,4.20
2019-06-20T22:35:45.966Z,3.17
2019-06-20T22:38:15.847Z,3.50
2019-06-20T22:40:46.104Z,3.12
2019-06-20T22:43:15.717Z,3.00
2019-06-20T22:45:45.431Z,2.90
2019-06-20T22:48:14.981Z,3.22
2019-06-20T22:50:44.708Z,4.33
2019-06-20T22:53:14.264Z,3.33
2019-06-20T22:55:43.907Z,3.40
2019-06-20T22:58:13.543Z,3.98
2019-06-20T23:00:43.914Z,3.20
2019-06-20T23:03:13.533Z,3.15
2019-06-20T23:05:43.161Z,3.52
2019-06-20T23:08:12.665Z,3.40
2019-06-20T23:10:42.293Z,3.37
2019-06-20T23:13:11.963Z,3.12
2019-06-20T23:15:41.942Z,3.65
2019-06-20T23:18:11.510Z,3.45
2019-06-20T23:20:41.445Z,3.17
2019-06-20T23:23:11.077Z,2.95
2019-06-20T23:25:42.285Z,3.40
2019-06-20T23:28:11.921Z,3.40
2019-06-20T23:30:41.473Z,3.20
2019-06-20T23:33:11.119Z,3.22
2019-06-20T23:35:40.680Z,3.15
2019-06-20T23:38:10.257Z,3.58
2019-06-20T23:40:39.876Z,3.20
2019-06-20T23:43:09.533Z,3.33
2019-06-20T23:45:39.176Z,3.62
2019-06-20T23:48:08.834Z,3.62
2019-06-20T23:50:38.465Z,3.30
2019-06-20T23:53:12.290Z,2.98
2019-06-20T23:55:41.776Z,3.22
2019-06-20T23:58:11.350Z,3.15
